New York, New York
Traffic Map
Current Weather Conditions
New York, New York
Scattered Clouds
Scattered Clouds
79°
Feels Like: 81°
Wind Chill: 79° Ceiling: Unl
Heat Index: 81° Visibility: 10mi
Dew Point: 66° Wind: 0mph
Humidity: 64% Direction: ° ()
Pressure: 30.16in Gusts: 0mph
Raw Report DataKNYC 061951Z AUTO 00000KT 10SM SCT065 26/19 A3016 RMK AO2 SLP201 T02610189 $
Traffic Incident Summary
Active as of:
Severity:
Category:
InformationThere was an issue retrieving the traffic information for this location. Please try a different location or try again shortly.
Advertisements
Track Severe Weather on mobile